Time;durP1;ratioP1;P1;durP2;ratioP2;P2;SDS_P1;SDS_P2;PMS_P1;PMS_P2;Temp;Humidity;BMP_temperature;BMP_pressure;BME280_temperature;BME280_humidity;BME280_pressure;Samples;Min_cycle;Max_cycle;Signal;HPM_P1;HPM_P2
2022/08/29 00:01:50;;;;;;;5.38;3.00;;;15.00;99.90;;;;;;5073244;28;20055;-60
2022/08/29 00:04:16;;;;;;;11.20;3.20;;;15.20;99.90;;;;;;5072856;28;20037;-60
2022/08/29 00:06:42;;;;;;;5.75;3.10;;;15.70;99.90;;;;;;5072886;28;20040;-60
2022/08/29 00:09:08;;;;;;;7.63;3.40;;;15.20;99.90;;;;;;5072788;28;20068;-60
2022/08/29 00:11:34;;;;;;;6.28;3.25;;;15.20;99.90;;;;;;5072625;28;20047;-60
2022/08/29 00:13:59;;;;;;;10.75;3.60;;;15.10;99.90;;;;;;5071434;28;20476;-61
2022/08/29 00:16:25;;;;;;;7.93;3.35;;;;;;;;;;5071937;28;20055;-60
2022/08/29 00:18:51;;;;;;;8.27;3.42;;;;;;;;;;5072786;28;20144;-60
2022/08/29 00:21:17;;;;;;;7.63;3.40;;;15.30;99.90;;;;;;5073239;28;20115;-60
2022/08/29 00:23:44;;;;;;;7.32;3.42;;;15.20;99.90;;;;;;5076655;28;20468;-60
2022/08/29 00:26:11;;;;;;;7.90;3.53;;;15.20;99.90;;;;;;5076658;28;20466;-60
2022/08/29 00:28:37;;;;;;;8.23;3.42;;;;;;;;;;5075516;28;20044;-60
2022/08/29 00:31:03;;;;;;;8.68;3.42;;;14.60;99.90;;;;;;5075326;28;20048;-60
2022/08/29 00:33:32;;;;;;;8.65;3.72;;;15.20;99.90;;;;;;5076460;28;20182;-60
2022/08/29 00:35:57;;;;;;;8.35;3.45;;;15.30;99.90;;;;;;5076449;28;20036;-61
2022/08/29 00:38:23;;;;;;;8.75;3.50;;;15.10;99.90;;;;;;5075281;28;20040;-61
2022/08/29 00:40:53;;;;;;;11.88;3.75;;;15.20;99.90;;;;;;5076529;28;20465;-60
2022/08/29 00:43:28;;;;;;;11.85;4.00;;;15.70;99.90;;;;;;5076444;28;20056;-60
2022/08/29 00:46:24;;;;;;;8.02;3.53;;;15.20;99.90;;;;;;5076537;28;20051;-60
2022/08/29 00:48:57;;;;;;;6.70;3.33;;;15.30;99.90;;;;;;5076583;28;20032;-60
2022/08/29 00:51:23;;;;;;;8.10;3.53;;;15.10;99.90;;;;;;5076368;28;20044;-61
2022/08/29 00:53:56;;;;;;;9.65;4.07;;;15.20;99.90;;;;;;5076219;28;20048;-61
2022/08/29 00:56:24;;;;;;;12.65;4.10;;;15.30;99.90;;;;;;5076052;28;20055;-60
2022/08/29 00:59:15;;;;;;;10.52;3.55;;;15.20;99.90;;;;;;5076024;28;20436;-61
2022/08/29 01:01:45;;;;;;;9.23;3.88;;;15.10;99.90;;;;;;5076123;28;20054;-60
2022/08/29 01:04:11;;;;;;;12.88;3.88;;;15.30;99.90;;;;;;5075921;28;20036;-60
2022/08/29 01:06:40;;;;;;;8.82;3.78;;;15.50;99.90;;;;;;5075858;28;20491;-60
2022/08/29 01:09:09;;;;;;;11.52;3.58;;;15.30;99.90;;;;;;5076317;28;20041;-60
2022/08/29 01:14:24;;;;;;;9.97;3.67;;;15.20;99.90;;;;;;5076006;28;20041;-61
2022/08/29 01:16:55;;;;;;;11.18;4.05;;;15.20;99.90;;;;;;5075899;28;20291;-61
2022/08/29 01:19:40;;;;;;;10.50;4.25;;;15.70;99.90;;;;;;5075658;28;20044;-61
2022/08/29 01:22:33;;;;;;;9.25;4.35;;;15.70;99.90;;;;;;5075506;28;20082;-59
2022/08/29 01:25:00;;;;;;;10.85;4.40;;;15.30;99.90;;;;;;5075756;28;20050;-59
2022/08/29 01:27:30;;;;;;;10.75;4.25;;;15.30;99.90;;;;;;5075635;28;20041;-59
2022/08/29 01:29:56;;;;;;;11.98;4.30;;;15.40;99.90;;;;;;5075946;28;20048;-59
2022/08/29 01:32:23;;;;;;;10.50;4.32;;;15.20;99.90;;;;;;5074932;28;20044;-59
2022/08/29 01:34:49;;;;;;;8.90;4.10;;;15.00;99.90;;;;;;5075257;28;20048;-59
2022/08/29 01:37:16;;;;;;;10.02;4.15;;;15.20;99.90;;;;;;5075285;28;20129;-59
2022/08/29 01:39:43;;;;;;;11.43;4.72;;;15.20;99.90;;;;;;5075247;28;20036;-59
2022/08/29 01:42:12;;;;;;;10.85;4.47;;;15.40;99.90;;;;;;5074233;28;20467;-59
2022/08/29 01:44:39;;;;;;;8.65;3.60;;;15.40;99.90;;;;;;5075543;28;20531;-59
2022/08/29 01:47:10;;;;;;;7.13;3.90;;;15.20;99.90;;;;;;5075091;28;20062;-59
2022/08/29 01:49:36;;;;;;;10.25;4.32;;;15.10;99.90;;;;;;5075256;28;20040;-59
2022/08/29 01:52:08;;;;;;;7.95;4.15;;;15.20;99.90;;;;;;5075293;28;20059;-59
2022/08/29 01:54:43;;;;;;;13.65;4.35;;;15.30;99.90;;;;;;5075069;28;20040;-59
2022/08/29 01:57:13;;;;;;;10.55;4.10;;;15.30;99.90;;;;;;5075427;28;20044;-59
2022/08/29 01:59:41;;;;;;;6.95;3.70;;;15.30;99.90;;;;;;5073339;28;20079;-59
2022/08/29 02:02:20;;;;;;;8.32;4.50;;;15.00;99.90;;;;;;5074855;28;20043;-59
2022/08/29 02:04:47;;;;;;;13.50;4.07;;;16.00;99.90;;;;;;5075103;28;20041;-59
2022/08/29 02:07:23;;;;;;;10.07;4.63;;;15.20;99.90;;;;;;5074680;28;20569;-59
2022/08/29 02:09:49;;;;;;;9.70;4.13;;;15.10;99.90;;;;;;5074785;28;20049;-59
2022/08/29 02:12:16;;;;;;;10.18;4.40;;;;;;;;;;5075084;28;20048;-59
2022/08/29 02:14:42;;;;;;;10.77;4.30;;;15.30;99.90;;;;;;5074872;28;20063;-59
2022/08/29 02:17:08;;;;;;;6.35;4.10;;;15.60;99.90;;;;;;5074721;28;20044;-59
2022/08/29 02:19:35;;;;;;;12.50;4.20;;;15.10;99.90;;;;;;5074513;28;20040;-59
2022/08/29 02:22:02;;;;;;;10.23;4.50;;;;;;;;;;5074508;28;20063;-59
2022/08/29 02:24:29;;;;;;;9.45;4.38;;;15.30;99.90;;;;;;5074928;28;20039;-59
2022/08/29 02:26:56;;;;;;;10.38;4.20;;;15.10;99.90;;;;;;5074246;28;20112;-59
2022/08/29 02:29:24;;;;;;;11.25;4.40;;;15.10;99.90;;;;;;5074341;28;20438;-59
2022/08/29 02:31:49;;;;;;;10.15;4.20;;;15.10;99.90;;;;;;5074172;28;20494;-59
2022/08/29 02:34:16;;;;;;;9.02;4.50;;;;;;;;;;5074336;28;20115;-59
2022/08/29 02:36:42;;;;;;;9.13;4.50;;;15.00;99.90;;;;;;5074262;28;20078;-59
2022/08/29 02:39:07;;;;;;;8.85;4.55;;;15.00;99.90;;;;;;5074084;28;20107;-59
2022/08/29 02:41:33;;;;;;;11.02;4.20;;;14.90;99.90;;;;;;5073847;28;20429;-59
2022/08/29 02:43:59;;;;;;;9.77;4.57;;;15.70;99.90;;;;;;5073380;28;20044;-59
2022/08/29 02:46:25;;;;;;;13.05;4.72;;;14.90;99.90;;;;;;5074072;28;20033;-59
2022/08/29 02:48:51;;;;;;;12.15;4.85;;;15.00;99.90;;;;;;5074372;28;20093;-59
2022/08/29 02:51:23;;;;;;;11.70;5.15;;;15.00;99.90;;;;;;5073976;28;20036;-61
2022/08/29 02:53:49;;;;;;;9.27;4.97;;;15.20;99.90;;;;;;5072534;28;20051;-61
2022/08/29 02:56:15;;;;;;;9.70;4.40;;;15.00;99.90;;;;;;5074051;28;20037;-61
2022/08/29 02:58:41;;;;;;;12.18;4.70;;;15.00;99.90;;;;;;5073974;28;20145;-61
2022/08/29 03:01:08;;;;;;;9.27;4.40;;;15.00;99.90;;;;;;5072255;28;20049;-59
2022/08/29 03:03:36;;;;;;;9.65;4.40;;;15.20;99.90;;;;;;5073624;28;20132;-59
2022/08/29 03:06:03;;;;;;;9.60;5.03;;;15.00;99.90;;;;;;5074104;28;20459;-59
2022/08/29 03:08:29;;;;;;;9.95;4.55;;;14.70;99.90;;;;;;5073476;28;20043;-59
2022/08/29 03:10:55;;;;;;;11.13;4.45;;;15.30;99.90;;;;;;5073500;28;20043;-59
2022/08/29 03:13:21;;;;;;;12.13;4.68;;;15.10;99.90;;;;;;5072511;28;20048;-59
2022/08/29 03:15:47;;;;;;;10.05;4.82;;;14.90;99.90;;;;;;5073615;28;20049;-59
2022/08/29 03:18:13;;;;;;;10.40;4.75;;;;;;;;;;5073509;28;20043;-59
2022/08/29 03:20:40;;;;;;;7.78;4.30;;;15.10;99.90;;;;;;5073727;28;20048;-59
2022/08/29 03:23:07;;;;;;;8.45;4.63;;;15.00;99.90;;;;;;5073122;28;20037;-59
2022/08/29 03:25:36;;;;;;;10.05;4.70;;;15.70;99.90;;;;;;5073504;28;20036;-59
2022/08/29 03:28:03;;;;;;;8.65;4.47;;;15.00;99.90;;;;;;5073467;28;20101;-59
2022/08/29 03:30:29;;;;;;;12.38;5.07;;;15.00;99.90;;;;;;5073282;28;20040;-59
2022/08/29 03:32:56;;;;;;;7.05;4.63;;;15.00;99.90;;;;;;5073296;28;20049;-59
2022/08/29 03:35:23;;;;;;;10.90;4.85;;;15.00;99.90;;;;;;5073259;28;20515;-59
2022/08/29 03:37:54;;;;;;;12.85;4.68;;;13.60;99.90;;;;;;5073237;28;20056;-59
2022/08/29 03:40:20;;;;;;;9.70;4.53;;;;;;;;;;5073206;28;20136;-59
2022/08/29 03:42:46;;;;;;;9.02;4.38;;;14.40;99.90;;;;;;5073267;28;20040;-59
2022/08/29 03:45:15;;;;;;;7.47;4.28;;;15.00;99.90;;;;;;5073204;28;20032;-59
2022/08/29 03:47:41;;;;;;;8.05;4.45;;;15.10;99.90;;;;;;5072884;28;20042;-59
2022/08/29 03:50:08;;;;;;;8.65;4.70;;;14.90;99.90;;;;;;5072770;28;20045;-59
2022/08/29 03:52:33;;;;;;;9.75;4.70;;;15.00;99.90;;;;;;5073209;28;20044;-59
2022/08/29 03:55:00;;;;;;;10.10;4.70;;;14.10;99.90;;;;;;5072582;28;20048;-58
2022/08/29 03:57:26;;;;;;;9.73;4.43;;;14.90;99.90;;;;;;5071618;28;20131;-59
2022/08/29 03:59:52;;;;;;;10.00;4.60;;;14.90;99.90;;;;;;5072566;28;20044;-59
2022/08/29 04:02:17;;;;;;;9.88;4.65;;;15.60;99.90;;;;;;5072864;28;20067;-58
2022/08/29 04:07:30;;;;;;;10.43;4.45;;;15.10;99.90;;;;;;5073188;28;20126;-59
2022/08/29 04:09:57;;;;;;;12.98;5.13;;;14.80;99.90;;;;;;5073101;28;20048;-59
2022/08/29 04:12:23;;;;;;;10.00;4.47;;;15.10;99.90;;;;;;5072830;28;20044;-59
2022/08/29 04:14:49;;;;;;;10.32;4.47;;;;;;;;;;5073110;28;20048;-59
2022/08/29 04:17:14;;;;;;;12.60;4.65;;;14.10;99.90;;;;;;5073184;28;20439;-59
2022/08/29 04:19:40;;;;;;;10.10;4.38;;;15.10;99.90;;;;;;5072573;28;20102;-59
2022/08/29 04:22:06;;;;;;;11.50;4.38;;;15.00;99.90;;;;;;5072572;28;20041;-59
2022/08/29 04:24:33;;;;;;;9.95;4.50;;;14.90;99.90;;;;;;5072761;28;20461;-59
2022/08/29 04:26:59;;;;;;;10.25;4.50;;;14.90;99.90;;;;;;5072637;28;20056;-59
2022/08/29 04:29:25;;;;;;;13.63;4.38;;;;;;;;;;5054711;28;20040;-59
2022/08/29 04:31:51;;;;;;;14.35;5.25;;;15.70;99.90;;;;;;5072415;28;20047;-60
2022/08/29 04:34:17;;;;;;;10.63;4.75;;;;;;;;;;5068553;28;20127;-60
2022/08/29 04:36:47;;;;;;;12.07;4.60;;;15.80;99.90;;;;;;5062624;28;20048;-60
2022/08/29 04:39:14;;;;;;;10.90;4.65;;;14.90;99.90;;;;;;5066413;28;20044;-60
2022/08/29 04:41:40;;;;;;;11.82;4.95;;;;;;;;;;5052898;28;20508;-60
2022/08/29 04:44:07;;;;;;;8.85;4.85;;;15.60;99.90;;;;;;5051710;28;20045;-60
2022/08/29 04:46:33;;;;;;;9.57;4.47;;;15.10;99.90;;;;;;5063550;28;20032;-60
2022/08/29 04:48:58;;;;;;;10.68;4.63;;;14.20;99.90;;;;;;5070991;28;20052;-60
2022/08/29 04:51:24;;;;;;;9.52;4.57;;;14.90;99.90;;;;;;5071092;28;20044;-60
2022/08/29 04:53:52;;;;;;;9.52;4.70;;;15.00;99.90;;;;;;5072586;28;20048;-60
2022/08/29 04:56:19;;;;;;;12.85;5.15;;;14.70;99.90;;;;;;5072205;28;20052;-59
2022/08/29 04:58:46;;;;;;;11.80;5.13;;;;;;;;;;5070983;28;20565;-60
2022/08/29 05:01:14;;;;;;;10.05;4.75;;;14.10;99.90;;;;;;5071999;28;20484;-60
2022/08/29 05:03:42;;;;;;;9.27;4.97;;;;;;;;;;5072172;28;20032;-60
2022/08/29 05:06:12;;;;;;;8.88;4.70;;;14.20;99.90;;;;;;5070880;28;20158;-60
2022/08/29 05:08:48;;;;;;;10.60;4.80;;;;;;;;;;5075070;28;20044;-60
2022/08/29 05:11:18;;;;;;;10.02;5.15;;;15.50;99.90;;;;;;5075822;28;20051;-60
2022/08/29 05:13:47;;;;;;;9.00;4.60;;;15.00;99.90;;;;;;5074785;28;20125;-60
2022/08/29 05:16:16;;;;;;;9.75;4.60;;;14.50;99.90;;;;;;5075837;28;20045;-60
2022/08/29 05:18:47;;;;;;;10.10;4.90;;;15.10;99.90;;;;;;5056869;28;20451;-60
2022/08/29 05:21:22;;;;;;;11.82;4.82;;;15.00;99.90;;;;;;5068176;28;20098;-60
2022/08/29 05:23:51;;;;;;;11.18;4.85;;;15.30;99.90;;;;;;5074170;28;20036;-60
2022/08/29 05:26:17;;;;;;;11.98;5.20;;;15.20;99.90;;;;;;5074095;28;20036;-60
2022/08/29 05:28:45;;;;;;;15.02;4.75;;;15.20;99.90;;;;;;5074049;28;20051;-59
2022/08/29 05:31:13;;;;;;;10.65;4.90;;;15.10;99.90;;;;;;5073444;28;20506;-60
2022/08/29 05:33:42;;;;;;;15.73;5.10;;;15.50;99.90;;;;;;5073799;28;20099;-60
2022/08/29 05:36:08;;;;;;;12.80;4.97;;;15.70;99.90;;;;;;5073756;28;20056;-60
2022/08/29 05:38:35;;;;;;;14.27;5.15;;;15.80;99.90;;;;;;5073387;28;20085;-60
2022/08/29 05:41:01;;;;;;;15.38;5.30;;;15.80;99.90;;;;;;5074264;28;20123;-60
2022/08/29 05:43:28;;;;;;;10.40;5.00;;;15.80;99.90;;;;;;5075217;28;20086;-60
2022/08/29 05:46:08;;;;;;;14.52;4.70;;;15.70;99.90;;;;;;5074041;28;20045;-60
2022/08/29 05:48:35;;;;;;;9.55;4.55;;;17.40;99.90;;;;;;5056859;28;20047;-60
2022/08/29 05:51:01;;;;;;;7.65;4.32;;;17.30;99.90;;;;;;5074251;28;20045;-60
2022/08/29 05:53:30;;;;;;;12.68;4.53;;;17.90;99.90;;;;;;5074560;28;20090;-60
2022/08/29 05:55:55;;;;;;;11.00;4.72;;;18.80;99.90;;;;;;5074469;28;20040;-60
2022/08/29 05:58:21;;;;;;;8.90;4.40;;;19.30;99.90;;;;;;5074538;28;20429;-60
2022/08/29 06:00:50;;;;;;;15.18;5.03;;;19.40;99.90;;;;;;5074200;28;20445;-60
2022/08/29 06:03:17;;;;;;;11.15;4.50;;;19.80;99.90;;;;;;5074762;28;20041;-60
2022/08/29 06:05:50;;;;;;;9.48;4.32;;;20.30;99.90;;;;;;5073269;28;20044;-60
2022/08/29 06:08:16;;;;;;;10.15;4.70;;;20.20;99.90;;;;;;5072952;28;20032;-60
2022/08/29 06:10:44;;;;;;;10.20;4.75;;;20.40;99.90;;;;;;5074431;28;20117;-60
2022/08/29 06:13:10;;;;;;;13.73;5.05;;;20.20;99.90;;;;;;5074612;28;20137;-60
2022/08/29 06:15:36;;;;;;;9.45;5.18;;;19.60;99.90;;;;;;5074369;28;20033;-60
2022/08/29 06:18:03;;;;;;;10.43;5.20;;;19.70;99.90;;;;;;5071870;28;20040;-60
2022/08/29 06:20:29;;;;;;;21.25;8.63;;;19.50;99.90;;;;;;5072014;28;20162;-60
2022/08/29 06:22:54;;;;;;;20.38;9.38;;;19.50;99.90;;;;;;5072757;28;20132;-60
2022/08/29 06:25:21;;;;;;;17.83;10.52;;;19.00;99.90;;;;;;5074235;28;20033;-60
2022/08/29 06:27:47;;;;;;;21.80;14.85;;;21.40;99.90;;;;;;5073924;28;20071;-60
2022/08/29 06:30:13;;;;;;;32.33;21.17;;;19.30;99.90;;;;;;5073954;28;20032;-60
2022/08/29 06:32:38;;;;;;;33.60;21.63;;;18.80;99.90;;;;;;5074013;28;20044;-60
2022/08/29 06:35:05;;;;;;;34.42;23.02;;;18.90;99.90;;;;;;5074296;28;20462;-60
2022/08/29 06:37:31;;;;;;;33.58;22.70;;;18.90;99.90;;;;;;5073989;28;20041;-60
2022/08/29 06:39:56;;;;;;;28.95;20.63;;;18.70;99.90;;;;;;5073890;28;20041;-60
2022/08/29 06:42:23;;;;;;;30.13;19.25;;;18.70;99.90;;;;;;5074482;28;20119;-60
2022/08/29 06:44:49;;;;;;;27.75;16.70;;;18.60;99.90;;;;;;5073863;28;20081;-61
2022/08/29 06:47:18;;;;;;;24.42;16.15;;;18.60;99.90;;;;;;5072530;28;20036;-60
2022/08/29 06:49:44;;;;;;;22.58;13.30;;;18.80;99.90;;;;;;5073054;28;20372;-60
2022/08/29 06:52:10;;;;;;;20.30;10.60;;;18.50;99.90;;;;;;5073937;28;20037;-60
2022/08/29 06:54:36;;;;;;;20.05;9.38;;;18.40;99.90;;;;;;5073972;28;20376;-60
2022/08/29 06:57:01;;;;;;;14.93;8.10;;;18.30;99.90;;;;;;5073763;28;20037;-60
2022/08/29 06:59:27;;;;;;;16.67;7.30;;;18.00;99.90;;;;;;5072150;28;20051;-60
2022/08/29 07:01:56;;;;;;;15.10;6.95;;;17.80;99.90;;;;;;5073149;28;20097;-61
2022/08/29 07:04:21;;;;;;;13.45;6.38;;;18.20;99.90;;;;;;5073575;28;20028;-61
2022/08/29 07:06:48;;;;;;;12.50;6.00;;;17.00;99.90;;;;;;5073703;28;20499;-61
2022/08/29 07:09:14;;;;;;;9.73;5.32;;;18.10;99.90;;;;;;5071882;28;20185;-61
2022/08/29 07:11:41;;;;;;;9.45;5.68;;;18.30;99.90;;;;;;5073371;28;20041;-61
2022/08/29 07:14:07;;;;;;;10.93;4.90;;;18.00;99.90;;;;;;5073716;28;20047;-61
2022/08/29 07:16:34;;;;;;;13.07;4.47;;;18.10;99.90;;;;;;5072509;28;20436;-61
2022/08/29 07:19:02;;;;;;;17.55;4.30;;;18.10;99.90;;;;;;5072087;28;20091;-61
2022/08/29 07:21:27;;;;;;;10.52;3.80;;;18.30;99.90;;;;;;5073308;28;20049;-60
2022/08/29 07:23:54;;;;;;;11.82;3.97;;;18.80;99.90;;;;;;5073432;28;20028;-60
2022/08/29 07:26:28;;;;;;;11.48;3.88;;;18.50;99.90;;;;;;5072009;28;20072;-60
2022/08/29 07:28:56;;;;;;;9.68;3.78;;;19.60;99.90;;;;;;5072889;28;20037;-60
2022/08/29 07:31:22;;;;;;;10.40;3.97;;;18.70;99.90;;;;;;5072938;28;20047;-60
2022/08/29 07:33:48;;;;;;;10.27;4.10;;;19.60;99.90;;;;;;5071701;28;20052;-60
2022/08/29 07:36:14;;;;;;;15.13;4.93;;;19.00;99.90;;;;;;5071665;28;20129;-60
2022/08/29 07:38:40;;;;;;;14.50;4.40;;;19.10;99.90;;;;;;5073082;28;20037;-60
2022/08/29 07:41:09;;;;;;;10.75;4.07;;;19.20;99.90;;;;;;5071654;28;20036;-60
2022/08/29 07:43:35;;;;;;;9.80;3.65;;;19.30;99.90;;;;;;5073304;28;20467;-60
2022/08/29 07:46:10;;;;;;;11.10;3.40;;;19.40;99.90;;;;;;5073259;28;20125;-60
2022/08/29 07:48:40;;;;;;;13.90;3.60;;;19.90;99.90;;;;;;5073014;28;20050;-60
2022/08/29 07:51:14;;;;;;;13.15;3.65;;;20.20;99.90;;;;;;5072751;28;20048;-60
2022/08/29 07:53:40;;;;;;;10.77;3.60;;;20.60;99.90;;;;;;5072899;28;20040;-60
2022/08/29 07:56:09;;;;;;;13.52;3.78;;;20.50;99.90;;;;;;5072681;28;20047;-60
2022/08/29 07:58:35;;;;;;;13.57;3.58;;;20.50;99.90;;;;;;5073140;28;20044;-60
2022/08/29 08:01:02;;;;;;;12.07;3.90;;;20.40;99.90;;;;;;5072717;28;20049;-60
2022/08/29 08:03:32;;;;;;;14.50;3.50;;;20.30;99.90;;;;;;5071578;28;20095;-61
2022/08/29 08:06:02;;;;;;;15.88;3.50;;;19.50;99.90;;;;;;5071534;28;20037;-62
2022/08/29 08:08:28;;;;;;;11.75;3.75;;;20.20;99.90;;;;;;5073182;28;20036;-61
2022/08/29 08:10:54;;;;;;;10.73;3.25;;;20.20;99.90;;;;;;5072942;28;20498;-62
2022/08/29 08:13:20;;;;;;;20.83;3.95;;;20.20;99.90;;;;;;5072941;28;20032;-61
2022/08/29 08:15:46;;;;;;;10.57;3.60;;;20.30;99.90;;;;;;5072800;28;20116;-62
2022/08/29 08:18:12;;;;;;;10.20;3.60;;;20.40;99.90;;;;;;5072582;28;20495;-61
2022/08/29 08:20:38;;;;;;;14.05;3.60;;;20.80;99.90;;;;;;5071312;28;20061;-62
2022/08/29 08:23:04;;;;;;;12.93;3.60;;;20.80;99.90;;;;;;5072571;28;20032;-61
2022/08/29 08:25:30;;;;;;;13.98;4.03;;;21.00;99.90;;;;;;5072831;28;20036;-61
2022/08/29 08:27:57;;;;;;;14.25;3.60;;;21.10;99.90;;;;;;5072724;28;20360;-61
2022/08/29 08:30:24;;;;;;;12.93;3.50;;;21.10;99.90;;;;;;5072653;28;20044;-61
2022/08/29 08:32:49;;;;;;;14.23;3.60;;;21.00;99.90;;;;;;5072719;28;20063;-62
2022/08/29 08:35:15;;;;;;;12.68;3.58;;;21.00;99.90;;;;;;5072554;28;20048;-62
2022/08/29 08:37:42;;;;;;;15.30;3.55;;;21.20;99.90;;;;;;5071341;28;20036;-62
2022/08/29 08:40:19;;;;;;;11.50;3.17;;;21.10;99.90;;;;;;5072550;28;20044;-62
2022/08/29 08:42:45;;;;;;;8.80;3.50;;;22.00;99.90;;;;;;5072837;28;20090;-61
2022/08/29 08:45:18;;;;;;;11.25;3.30;;;21.10;99.90;;;;;;5076329;28;20419;-61
2022/08/29 08:48:04;;;;;;;11.40;3.45;;;21.10;99.90;;;;;;5076174;28;20039;-62
2022/08/29 08:50:58;;;;;;;10.27;3.20;;;21.00;99.90;;;;;;5076432;28;20043;-61
2022/08/29 08:53:45;;;;;;;9.43;3.25;;;21.10;99.90;;;;;;5076004;28;20067;-61
2022/08/29 08:56:24;;;;;;;14.25;3.55;;;21.20;99.90;;;;;;5075795;28;20477;-61
2022/08/29 08:59:17;;;;;;;13.75;3.80;;;21.40;99.90;;;;;;5075789;28;20102;-61
2022/08/29 09:01:59;;;;;;;11.63;3.50;;;21.20;99.90;;;;;;5075949;28;20048;-61
2022/08/29 09:04:46;;;;;;;15.68;4.20;;;21.30;99.90;;;;;;5075950;28;20041;-62
2022/08/29 09:07:44;;;;;;;10.10;3.72;;;21.20;99.90;;;;;;5075882;28;20040;-61
2022/08/29 09:10:30;;;;;;;9.85;3.25;;;21.50;99.90;;;;;;5060896;28;20056;-61
2022/08/29 09:13:28;;;;;;;14.73;3.70;;;21.70;99.90;;;;;;5075719;28;20116;-60
2022/08/29 09:15:58;;;;;;;13.25;3.63;;;22.40;99.90;;;;;;5075338;28;20134;-60
2022/08/29 09:18:27;;;;;;;10.30;3.25;;;22.40;99.90;;;;;;5075487;28;20040;-60
2022/08/29 09:20:54;;;;;;;13.38;3.38;;;22.50;99.90;;;;;;5075826;28;20080;-60
2022/08/29 09:23:44;;;;;;;9.52;3.35;;;22.60;99.90;;;;;;5074114;28;20496;-61
2022/08/29 09:26:15;;;;;;;10.65;3.63;;;22.50;99.90;;;;;;5075504;28;20181;-61
2022/08/29 09:28:41;;;;;;;14.20;3.60;;;22.40;99.90;;;;;;5075465;28;20043;-61
2022/08/29 09:31:28;;;;;;;8.95;3.50;;;22.20;99.90;;;;;;5075490;28;20112;-61
2022/08/29 09:33:57;;;;;;;10.30;3.30;;;22.60;99.90;;;;;;5075745;28;20044;-60
2022/08/29 09:36:44;;;;;;;11.10;3.60;;;22.10;99.90;;;;;;5075310;28;20123;-60
2022/08/29 09:39:21;;;;;;;16.70;3.40;;;22.20;99.90;;;;;;5075242;28;20040;-59
2022/08/29 09:41:52;;;;;;;11.43;3.30;;;22.40;99.90;;;;;;5075179;28;20091;-58
2022/08/29 09:44:27;;;;;;;9.77;3.20;;;22.40;99.90;;;;;;5073975;28;20453;-59
2022/08/29 09:47:18;;;;;;;16.17;3.53;;;22.60;99.90;;;;;;5075315;28;20040;-60
2022/08/29 09:50:03;;;;;;;11.63;4.05;;;22.70;99.90;;;;;;5075077;28;20512;-60
2022/08/29 09:52:29;;;;;;;11.52;3.40;;;22.50;99.90;;;;;;5075050;28;20442;-60
2022/08/29 09:54:55;;;;;;;12.50;3.72;;;22.40;99.90;;;;;;5074590;28;20040;-60
2022/08/29 09:57:26;;;;;;;14.30;3.58;;;22.40;99.90;;;;;;5075010;28;20045;-60
2022/08/29 10:00:11;;;;;;;10.63;3.70;;;22.30;99.90;;;;;;5074806;28;20488;-60
2022/08/29 10:02:49;;;;;;;12.57;3.45;;;22.30;99.90;;;;;;5074898;28;20052;-60
2022/08/29 10:05:33;;;;;;;12.13;3.60;;;22.30;99.90;;;;;;5074330;28;20036;-60
2022/08/29 10:08:00;;;;;;;12.57;3.25;;;22.30;99.90;;;;;;5074794;28;20040;-60
2022/08/29 10:10:31;;;;;;;10.35;3.60;;;22.30;99.90;;;;;;5073674;28;20115;-60
2022/08/29 10:13:10;;;;;;;14.63;3.80;;;22.50;99.90;;;;;;5074805;28;20074;-60
2022/08/29 10:15:56;;;;;;;10.32;3.33;;;22.60;99.90;;;;;;5074447;28;20040;-60
2022/08/29 10:19:01;;;;;;;11.38;3.60;;;23.00;99.90;;;;;;5074756;28;20045;-60
2022/08/29 10:21:45;;;;;;;10.30;3.55;;;23.10;99.90;;;;;;5074486;28;20085;-61
2022/08/29 10:24:39;;;;;;;12.23;3.50;;;23.00;99.90;;;;;;5074703;28;20044;-60
2022/08/29 10:27:26;;;;;;;10.43;3.47;;;23.10;99.90;;;;;;5074519;28;20040;-60
2022/08/29 10:30:06;;;;;;;14.15;3.70;;;23.10;99.90;;;;;;5074343;28;20044;-60
2022/08/29 10:32:54;;;;;;;35.75;4.43;;;23.00;99.90;;;;;;5074391;28;20036;-60
2022/08/29 10:35:39;;;;;;;12.65;3.30;;;23.10;99.90;;;;;;5074455;28;20433;-60
2022/08/29 10:38:31;;;;;;;12.00;3.22;;;24.40;99.90;;;;;;5074493;28;20045;-60
2022/08/29 10:41:17;;;;;;;9.68;3.22;;;23.30;99.90;;;;;;5072669;28;20044;-60
2022/08/29 10:44:16;;;;;;;11.88;3.42;;;23.90;99.90;;;;;;5074248;28;20044;-60
2022/08/29 10:46:59;;;;;;;10.80;3.65;;;23.30;99.90;;;;;;5073981;28;20055;-60
2022/08/29 10:49:37;;;;;;;13.02;3.50;;;23.30;99.90;;;;;;5074038;28;20111;-60
2022/08/29 10:52:22;;;;;;;11.13;3.30;;;23.50;99.90;;;;;;5073968;28;20037;-60
2022/08/29 10:55:21;;;;;;;10.97;3.20;;;23.30;99.90;;;;;;5073914;28;20050;-60
2022/08/29 10:58:05;;;;;;;14.30;3.50;;;23.50;99.90;;;;;;5073802;28;20041;-60
2022/08/29 11:00:54;;;;;;;10.88;3.58;;;23.40;99.90;;;;;;5072255;28;20519;-60
2022/08/29 11:03:46;;;;;;;10.20;3.08;;;23.50;99.90;;;;;;5073551;28;20037;-60
2022/08/29 11:06:25;;;;;;;11.23;3.42;;;23.20;99.90;;;;;;5072909;28;20039;-60
2022/08/29 11:09:05;;;;;;;11.25;3.40;;;23.10;99.90;;;;;;5073839;28;20036;-60
2022/08/29 11:11:32;;;;;;;9.82;3.40;;;23.10;99.90;;;;;;5053519;28;20060;-60
2022/08/29 11:14:05;;;;;;;12.43;3.38;;;23.20;99.90;;;;;;5054138;28;20040;-60
2022/08/29 11:16:33;;;;;;;12.77;3.88;;;24.50;99.90;;;;;;5053640;28;20080;-60
2022/08/29 11:19:28;;;;;;;12.77;3.50;;;23.70;99.90;;;;;;5053472;28;20086;-60
2022/08/29 11:22:16;;;;;;;7.90;3.38;;;23.60;99.90;;;;;;5052958;28;20099;-60
2022/08/29 11:24:43;;;;;;;11.10;3.40;;;23.40;99.90;;;;;;5053573;28;20089;-60
2022/08/29 11:27:33;;;;;;;10.05;3.35;;;23.50;99.90;;;;;;5053686;28;20091;-60
2022/08/29 11:30:20;;;;;;;13.07;3.40;;;24.60;99.90;;;;;;5053425;28;20045;-60
2022/08/29 11:33:07;;;;;;;12.57;3.63;;;23.70;99.90;;;;;;5053174;28;20045;-60
2022/08/29 11:35:42;;;;;;;11.90;3.70;;;23.80;99.50;;;;;;5053066;28;20040;-60
2022/08/29 11:38:46;;;;;;;10.57;3.10;;;23.80;99.50;;;;;;5053471;28;20041;-60
2022/08/29 11:41:31;;;;;;;9.20;3.40;;;24.00;99.90;;;;;;5052984;28;20543;-60
2022/08/29 11:44:04;;;;;;;;;;;23.80;97.70;;;;;;5052364;28;20048;-60
2022/08/29 11:46:38;;;;;;;7.30;2.90;;;23.70;98.00;;;;;;5053097;28;19923;-60
2022/08/29 11:49:47;;;;;;;13.95;3.90;;;23.60;99.90;;;;;;5053008;28;20431;-60
2022/08/29 11:52:20;;;;;;;8.43;3.22;;;23.70;97.60;;;;;;5053050;28;20077;-60
2022/08/29 11:54:50;;;;;;;12.48;3.70;;;23.70;97.40;;;;;;5053056;28;20083;-60
2022/08/29 11:57:15;;;;;;;11.65;3.55;;;23.70;97.40;;;;;;5052887;28;20124;-60
2022/08/29 11:59:47;;;;;;;9.07;3.10;;;23.50;99.90;;;;;;5052401;28;20463;-60
2022/08/29 12:02:40;;;;;;;14.77;3.55;;;23.60;97.90;;;;;;5052850;28;20048;-60
2022/08/29 12:05:15;;;;;;;32.97;4.28;;;23.70;98.10;;;;;;5052448;28;20049;-60
2022/08/29 12:07:48;;;;;;;9.32;3.15;;;23.70;97.60;;;;;;5052803;28;20033;-60
2022/08/29 12:10:22;;;;;;;10.45;3.45;;;23.70;97.90;;;;;;5051427;28;20040;-61
2022/08/29 12:13:02;;;;;;;12.40;3.53;;;23.30;97.90;;;;;;5052896;28;20078;-62
2022/08/29 12:15:34;;;;;;;11.68;3.50;;;23.30;98.30;;;;;;5052489;28;20045;-62
2022/08/29 12:18:12;;;;;;;10.68;3.22;;;23.20;98.70;;;;;;5055769;28;20449;-62
2022/08/29 12:20:44;;;;;;;13.55;3.90;;;23.20;99.30;;;;;;5056576;28;20041;-61
2022/08/29 12:23:09;;;;;;;8.57;3.30;;;23.10;99.60;;;;;;5054987;28;20060;-62
2022/08/29 12:25:44;;;;;;;10.68;3.50;;;23.20;99.80;;;;;;5056942;28;20041;-61
2022/08/29 12:28:16;;;;;;;9.18;3.10;;;22.90;99.90;;;;;;5057057;28;20037;-61
2022/08/29 12:30:57;;;;;;;8.90;3.47;;;23.20;99.90;;;;;;5055408;28;20049;-60
2022/08/29 12:33:44;;;;;;;8.77;3.15;;;23.30;99.90;;;;;;5056700;28;20045;-60
2022/08/29 12:36:27;;;;;;;11.45;3.25;;;23.80;99.90;;;;;;5056678;28;20037;-60
2022/08/29 12:39:20;;;;;;;9.18;3.13;;;23.90;99.90;;;;;;5056783;28;20045;-60
2022/08/29 12:42:20;;;;;;;9.48;3.08;;;24.30;99.90;;;;;;5055422;28;20041;-60
2022/08/29 12:44:58;;;;;;;9.63;3.28;;;24.10;97.70;;;;;;5056500;28;20041;-60
2022/08/29 12:47:26;;;;;;;12.07;3.58;;;24.20;97.90;;;;;;5055144;28;20041;-60
2022/08/29 12:49:57;;;;;;;8.10;3.10;;;24.90;99.90;;;;;;5056586;28;20444;-60
2022/08/29 12:52:26;;;;;;;8.70;3.22;;;24.70;97.20;;;;;;5056218;28;20112;-60
2022/08/29 12:54:55;;;;;;;11.77;3.17;;;23.90;98.20;;;;;;5056210;28;20094;-60
2022/08/29 12:57:35;;;;;;;8.77;3.22;;;24.60;96.50;;;;;;5056005;28;20043;-61
2022/08/29 13:00:10;;;;;;;11.30;3.20;;;24.60;95.80;;;;;;5055613;28;20128;-61
2022/08/29 13:02:37;;;;;;;12.40;3.25;;;24.10;97.50;;;;;;5054668;28;20124;-61
2022/08/29 13:05:19;;;;;;;10.00;3.30;;;24.20;95.60;;;;;;5056213;28;20048;-61
2022/08/29 13:08:35;;;;;;;9.43;3.10;;;23.90;95.40;;;;;;5056032;28;20441;-61
2022/08/29 13:11:08;;;;;;;10.52;3.50;;;23.70;99.40;;;;;;5053762;28;20107;-61
2022/08/29 13:13:35;;;;;;;12.63;3.80;;;23.50;96.30;;;;;;5053720;28;20075;-61
2022/08/29 13:16:03;;;;;;;10.52;3.53;;;23.40;96.60;;;;;;5036978;28;20068;-62